Time;durP1;ratioP1;P1;durP2;ratioP2;P2;SDS_P1;SDS_P2;PMS_P1;PMS_P2;Temp;Humidity;BMP_temperature;BMP_pressure;BME280_temperature;BME280_humidity;BME280_pressure;Samples;Min_cycle;Max_cycle;Signal;HPM_P1;HPM_P2
2022/08/24 00:00:23;;;;;;;3.07;1.30;;;17.40;82.40;;;;;;5059203;28;20220;-57
2022/08/24 00:02:49;;;;;;;2.20;1.77;;;17.40;82.60;;;;;;5082966;28;20196;-58
2022/08/24 00:05:16;;;;;;;4.93;1.77;;;17.40;82.70;;;;;;5092055;28;20232;-58
2022/08/24 00:07:42;;;;;;;6.77;1.90;;;17.40;82.80;;;;;;5082201;28;20299;-58
2022/08/24 00:10:09;;;;;;;1.80;1.60;;;17.30;82.40;;;;;;5083032;28;20386;-58
2022/08/24 00:12:35;;;;;;;2.13;1.60;;;17.30;82.60;;;;;;5084535;28;20180;-58
2022/08/24 00:15:03;;;;;;;2.30;2.10;;;17.30;82.70;;;;;;5088226;28;20208;-58
2022/08/24 00:17:28;;;;;;;2.43;1.60;;;17.30;82.70;;;;;;5088007;28;20185;-58
2022/08/24 00:19:54;;;;;;;3.40;1.27;;;17.30;82.70;;;;;;5094220;28;20185;-58
2022/08/24 00:22:19;;;;;;;2.37;1.57;;;17.30;82.70;;;;;;5082241;28;20193;-58
2022/08/24 00:24:45;;;;;;;2.43;1.70;;;17.30;82.90;;;;;;5079498;28;20193;-58
2022/08/24 00:27:11;;;;;;;5.63;2.00;;;17.30;83.00;;;;;;5068916;28;20323;-58
2022/08/24 00:29:37;;;;;;;2.23;1.40;;;17.20;83.20;;;;;;5066020;28;20184;-58
2022/08/24 00:32:03;;;;;;;5.33;1.40;;;17.10;83.30;;;;;;5065170;28;20183;-57
2022/08/24 00:34:29;;;;;;;1.93;1.10;;;17.10;83.40;;;;;;5081857;28;20188;-58
2022/08/24 00:36:55;;;;;;;1.40;0.97;;;17.10;83.10;;;;;;5070552;28;20189;-58
2022/08/24 00:39:21;;;;;;;1.90;1.27;;;17.00;83.30;;;;;;5075685;28;20195;-58
2022/08/24 00:41:49;;;;;;;1.40;1.30;;;17.00;83.50;;;;;;5099312;28;20204;-58
2022/08/24 00:44:16;;;;;;;1.30;1.10;;;17.00;83.50;;;;;;5098988;28;20191;-58
2022/08/24 00:47:02;;;;;;;2.13;1.00;;;17.00;83.30;;;;;;5074456;28;20212;-58
2022/08/24 00:49:42;;;;;;;2.20;1.20;;;16.90;83.50;;;;;;5086437;28;20197;-58
2022/08/24 00:52:24;;;;;;;2.60;1.03;;;16.90;83.50;;;;;;5096206;28;20201;-58
2022/08/24 00:54:59;;;;;;;3.53;1.30;;;16.80;83.60;;;;;;5099057;28;20192;-58
2022/08/24 00:57:30;;;;;;;3.60;1.40;;;16.80;83.80;;;;;;5098725;28;20196;-58
2022/08/24 01:00:03;;;;;;;1.20;1.10;;;16.80;83.90;;;;;;5087886;28;20238;-58
2022/08/24 01:02:34;;;;;;;1.43;0.87;;;16.80;83.90;;;;;;5098556;28;20192;-58
2022/08/24 01:05:04;;;;;;;1.37;1.20;;;16.80;83.80;;;;;;5087529;28;20188;-58
2022/08/24 01:07:31;;;;;;;1.50;1.30;;;16.70;83.70;;;;;;5099251;28;20191;-58
2022/08/24 01:10:00;;;;;;;1.23;1.00;;;16.70;83.90;;;;;;5116432;28;20189;-58
2022/08/24 01:12:28;;;;;;;1.20;1.10;;;16.70;83.90;;;;;;5098560;28;20193;-58
2022/08/24 01:14:57;;;;;;;2.50;1.53;;;16.70;83.90;;;;;;5116637;28;20192;-58
2022/08/24 01:20:09;;;;;;;1.67;1.10;;;16.50;84.10;;;;;;5115787;28;20249;-58
2022/08/24 01:23:23;;;;;;;1.70;1.33;;;16.50;84.30;;;;;;5099317;28;20181;-58
2022/08/24 01:25:49;;;;;;;1.33;1.20;;;16.40;84.40;;;;;;5081785;28;20296;-58
2022/08/24 01:28:19;;;;;;;1.20;1.00;;;16.50;84.50;;;;;;5060908;28;20264;-58
2022/08/24 01:30:45;;;;;;;4.07;1.37;;;16.40;84.40;;;;;;5114462;28;20188;-58
2022/08/24 01:33:22;;;;;;;1.40;1.30;;;16.40;84.50;;;;;;5097878;28;20196;-58
2022/08/24 01:35:48;;;;;;;2.63;1.23;;;16.30;84.50;;;;;;5098001;28;20188;-58
2022/08/24 01:38:15;;;;;;;1.23;1.13;;;16.30;84.70;;;;;;5057765;28;20224;-58
2022/08/24 01:40:51;;;;;;;1.47;1.20;;;16.30;84.70;;;;;;5069792;28;20197;-58
2022/08/24 01:43:17;;;;;;;3.23;1.20;;;16.30;84.70;;;;;;5090157;28;20196;-58
2022/08/24 01:45:43;;;;;;;1.73;1.20;;;16.30;84.80;;;;;;5097924;28;20216;-58
2022/08/24 01:48:09;;;;;;;4.00;1.57;;;16.30;84.60;;;;;;5090592;28;20227;-58
2022/08/24 01:50:35;;;;;;;1.63;1.20;;;16.20;84.90;;;;;;5097741;28;20188;-58
2022/08/24 01:53:04;;;;;;;1.80;1.20;;;16.20;84.90;;;;;;5072508;28;20200;-58
2022/08/24 01:55:30;;;;;;;3.67;1.10;;;16.20;84.80;;;;;;5097781;28;20256;-58
2022/08/24 01:57:55;;;;;;;2.17;1.10;;;16.20;84.70;;;;;;5075049;28;20193;-58
2022/08/24 02:00:21;;;;;;;2.03;1.13;;;16.10;85.00;;;;;;5097819;28;20192;-58
2022/08/24 02:02:47;;;;;;;3.77;1.10;;;16.10;85.00;;;;;;5080685;28;20222;-57
2022/08/24 02:05:14;;;;;;;1.30;1.20;;;16.10;85.20;;;;;;5081023;28;20272;-58
2022/08/24 02:07:40;;;;;;;1.83;1.20;;;16.10;85.20;;;;;;5082424;28;20191;-58
2022/08/24 02:10:08;;;;;;;5.13;1.40;;;16.00;85.30;;;;;;5103122;28;20181;-58
2022/08/24 02:12:39;;;;;;;4.70;1.93;;;16.00;85.30;;;;;;5096143;28;20191;-58
2022/08/24 02:15:07;;;;;;;2.00;1.23;;;16.10;85.40;;;;;;5091551;28;20183;-58
2022/08/24 02:17:34;;;;;;;3.57;1.37;;;16.00;85.20;;;;;;5079386;28;20189;-58
2022/08/24 02:20:00;;;;;;;2.77;1.33;;;16.00;85.30;;;;;;5111677;28;20215;-58
2022/08/24 02:22:26;;;;;;;1.17;1.07;;;16.00;85.40;;;;;;5097101;28;20189;-58
2022/08/24 02:24:51;;;;;;;2.47;1.27;;;16.00;85.30;;;;;;5076639;28;20193;-58
2022/08/24 02:27:17;;;;;;;2.43;1.17;;;16.00;85.40;;;;;;5081349;28;20233;-58
2022/08/24 02:29:44;;;;;;;3.17;1.33;;;16.00;85.40;;;;;;5097436;28;20189;-58
2022/08/24 02:32:11;;;;;;;4.63;1.47;;;16.00;85.50;;;;;;5088028;28;20194;-58
2022/08/24 02:34:37;;;;;;;2.90;1.40;;;15.90;85.40;;;;;;5068327;28;20193;-58
2022/08/24 02:37:03;;;;;;;3.30;1.43;;;16.00;85.40;;;;;;5111211;28;20273;-58
2022/08/24 02:39:29;;;;;;;2.53;1.30;;;16.00;85.50;;;;;;5060329;28;20281;-58
2022/08/24 02:41:56;;;;;;;1.00;1.00;;;15.90;85.50;;;;;;5088214;28;20196;-58
2022/08/24 02:44:21;;;;;;;1.40;1.10;;;15.90;85.30;;;;;;5074763;28;20240;-57
2022/08/24 02:46:47;;;;;;;3.03;1.20;;;16.00;85.30;;;;;;5073917;28;20233;-57
2022/08/24 02:49:13;;;;;;;2.03;1.60;;;15.90;85.20;;;;;;5059447;28;20240;-57
2022/08/24 02:51:43;;;;;;;1.60;1.40;;;15.90;85.30;;;;;;5061379;28;20204;-57
2022/08/24 02:54:09;;;;;;;4.90;1.60;;;15.90;85.30;;;;;;5091618;28;20193;-58
2022/08/24 02:56:35;;;;;;;5.23;1.83;;;15.90;85.40;;;;;;5078601;28;20242;-58
2022/08/24 02:59:01;;;;;;;6.13;2.10;;;15.80;85.40;;;;;;5093617;28;20283;-58
2022/08/24 03:01:28;;;;;;;4.63;1.40;;;15.80;85.40;;;;;;5079280;28;20199;-58
2022/08/24 03:03:55;;;;;;;2.50;1.40;;;15.80;85.60;;;;;;5100787;28;20188;-58
2022/08/24 03:06:21;;;;;;;1.63;1.53;;;15.80;85.60;;;;;;5106181;28;20296;-58
2022/08/24 03:08:47;;;;;;;1.70;1.40;;;15.80;85.90;;;;;;5060370;28;20291;-58
2022/08/24 03:11:12;;;;;;;3.23;1.60;;;15.80;85.90;;;;;;5099508;28;20184;-58
2022/08/24 03:13:38;;;;;;;2.37;1.73;;;15.70;85.90;;;;;;5061817;28;20232;-58
2022/08/24 03:16:05;;;;;;;4.57;1.80;;;15.80;86.00;;;;;;5093206;28;20197;-58
2022/08/24 03:18:32;;;;;;;2.93;1.77;;;15.80;85.80;;;;;;5096177;28;20200;-58
2022/08/24 03:20:59;;;;;;;1.60;1.50;;;15.80;86.00;;;;;;5093794;28;20192;-58
2022/08/24 03:23:26;;;;;;;1.53;1.43;;;15.80;85.90;;;;;;5072998;28;20243;-58
2022/08/24 03:25:53;;;;;;;1.70;1.60;;;15.70;86.00;;;;;;5083334;28;20230;-58
2022/08/24 03:28:20;;;;;;;2.23;1.80;;;15.70;86.10;;;;;;5084806;28;20186;-58
2022/08/24 03:30:46;;;;;;;3.97;1.60;;;15.70;86.10;;;;;;5089154;28;20181;-58
2022/08/24 03:33:12;;;;;;;3.70;1.90;;;15.70;86.00;;;;;;5078434;28;20200;-58
2022/08/24 03:35:38;;;;;;;3.20;2.37;;;15.70;86.10;;;;;;5081344;28;20192;-58
2022/08/24 03:38:04;;;;;;;3.63;1.73;;;15.70;86.20;;;;;;5101815;28;20189;-58
2022/08/24 03:40:32;;;;;;;3.73;1.83;;;15.70;86.00;;;;;;5080790;28;20258;-58
2022/08/24 03:42:58;;;;;;;2.73;1.93;;;15.70;86.10;;;;;;5054599;28;20194;-58
2022/08/24 03:45:24;;;;;;;4.03;1.70;;;15.70;86.10;;;;;;5075138;28;20220;-58
2022/08/24 03:47:50;;;;;;;1.60;1.50;;;15.60;86.10;;;;;;5083508;28;20189;-57
2022/08/24 03:50:16;;;;;;;4.23;2.10;;;15.60;86.30;;;;;;5074952;28;20292;-58
2022/08/24 03:52:42;;;;;;;5.20;2.00;;;15.60;86.20;;;;;;5073079;28;20272;-58
2022/08/24 03:55:09;;;;;;;4.10;2.17;;;15.60;86.20;;;;;;5072774;28;20214;-58
2022/08/24 03:57:34;;;;;;;2.80;1.93;;;15.60;86.30;;;;;;5084935;28;20194;-58
2022/08/24 04:00:02;;;;;;;2.60;2.03;;;15.60;86.10;;;;;;5054443;28;20280;-58
2022/08/24 04:02:28;;;;;;;2.13;1.93;;;15.60;86.30;;;;;;5082183;28;20204;-58
2022/08/24 04:04:53;;;;;;;2.97;1.97;;;15.60;86.40;;;;;;5054697;28;20185;-58
2022/08/24 04:07:19;;;;;;;2.37;2.00;;;15.60;86.40;;;;;;5057359;28;20227;-58
2022/08/24 04:09:45;;;;;;;4.23;2.10;;;15.60;86.40;;;;;;5077479;28;20197;-57
2022/08/24 04:12:11;;;;;;;2.23;1.70;;;15.60;86.40;;;;;;5055174;28;20194;-57
2022/08/24 04:14:37;;;;;;;3.20;2.10;;;15.60;86.40;;;;;;5057025;28;20189;-57
2022/08/24 04:17:03;;;;;;;2.47;1.90;;;15.60;86.40;;;;;;5079077;28;20184;-57
2022/08/24 04:19:29;;;;;;;3.73;2.03;;;15.60;86.40;;;;;;5084957;28;20207;-57
2022/08/24 04:21:57;;;;;;;5.43;2.37;;;15.50;86.40;;;;;;5080274;28;20185;-57
2022/08/24 04:24:24;;;;;;;4.40;1.97;;;15.50;86.40;;;;;;5085426;28;20195;-58
2022/08/24 04:26:50;;;;;;;3.10;2.07;;;15.50;86.40;;;;;;5079440;28;20241;-58
2022/08/24 04:29:18;;;;;;;3.43;2.00;;;15.50;86.40;;;;;;5067689;28;20196;-58
2022/08/24 04:31:44;;;;;;;4.07;2.10;;;15.50;86.50;;;;;;5097265;28;20181;-58
2022/08/24 04:34:12;;;;;;;2.43;2.00;;;15.50;86.50;;;;;;5107596;28;20184;-58
2022/08/24 04:36:43;;;;;;;3.83;2.10;;;15.50;86.60;;;;;;5084906;28;20189;-58
2022/08/24 04:39:10;;;;;;;3.80;2.23;;;15.50;86.60;;;;;;5119977;27;20308;-57
2022/08/24 04:41:36;;;;;;;3.50;2.00;;;15.50;86.70;;;;;;5092573;28;20184;-58
2022/08/24 04:44:02;;;;;;;3.60;1.93;;;15.40;86.70;;;;;;5086448;28;20192;-58
2022/08/24 04:46:29;;;;;;;4.60;2.00;;;15.40;86.90;;;;;;5102205;27;20214;-57
2022/08/24 04:48:55;;;;;;;2.90;1.80;;;15.40;87.00;;;;;;5105682;28;20267;-58
2022/08/24 04:51:21;;;;;;;2.13;1.93;;;15.40;87.00;;;;;;5096162;28;20272;-58
2022/08/24 04:53:48;;;;;;;4.53;1.70;;;15.40;87.00;;;;;;5083212;28;20191;-58
2022/08/24 04:56:22;;;;;;;2.30;2.00;;;15.40;87.10;;;;;;5075907;27;20185;-58
2022/08/24 04:58:49;;;;;;;2.60;1.80;;;15.40;87.30;;;;;;5091358;28;20195;-58
2022/08/24 05:01:20;;;;;;;2.20;1.90;;;15.40;87.40;;;;;;5070418;28;20195;-58
2022/08/24 05:03:49;;;;;;;2.80;2.00;;;15.50;87.40;;;;;;5099229;28;20193;-58
2022/08/24 05:06:15;;;;;;;3.67;2.10;;;15.50;87.50;;;;;;5105514;27;20214;-58
2022/08/24 05:08:42;;;;;;;4.73;1.90;;;15.50;87.50;;;;;;5098024;28;20184;-57
2022/08/24 05:11:08;;;;;;;6.20;2.23;;;15.50;87.50;;;;;;5051178;28;20217;-58
2022/08/24 05:13:35;;;;;;;2.77;2.10;;;15.50;87.50;;;;;;5072380;28;20189;-58
2022/08/24 05:16:00;;;;;;;5.37;2.07;;;15.60;87.60;;;;;;5096135;28;20196;-58
2022/08/24 05:18:28;;;;;;;4.20;2.60;;;15.60;87.70;;;;;;5083877;28;20192;-58
2022/08/24 05:20:55;;;;;;;3.03;2.40;;;15.70;87.60;;;;;;5070303;28;20195;-57
2022/08/24 05:23:21;;;;;;;2.63;1.93;;;15.70;87.60;;;;;;5101412;28;20189;-57
2022/08/24 05:25:47;;;;;;;2.77;2.10;;;15.70;87.70;;;;;;5086921;28;20236;-58
2022/08/24 05:28:13;;;;;;;5.67;2.37;;;15.80;87.60;;;;;;5093427;28;20194;-58
2022/08/24 05:30:38;;;;;;;2.57;2.20;;;15.80;87.50;;;;;;5088625;28;20195;-57
2022/08/24 05:33:04;;;;;;;2.33;2.13;;;15.80;87.60;;;;;;5088628;28;20198;-57
2022/08/24 05:35:30;;;;;;;3.50;2.30;;;15.80;87.60;;;;;;5050402;28;20193;-58
2022/08/24 05:37:56;;;;;;;3.70;2.00;;;15.80;87.50;;;;;;5061811;28;20200;-57
2022/08/24 05:40:22;;;;;;;3.07;2.00;;;15.90;87.40;;;;;;5087716;28;20591;-57
2022/08/24 05:42:49;;;;;;;4.60;2.73;;;15.90;87.40;;;;;;5070814;28;20208;-57
2022/08/24 05:45:14;;;;;;;2.43;1.90;;;16.00;87.30;;;;;;5107428;28;20184;-58
2022/08/24 05:47:40;;;;;;;4.53;2.07;;;16.00;87.40;;;;;;5069172;28;20192;-58
2022/08/24 05:50:06;;;;;;;4.90;2.17;;;16.00;87.40;;;;;;5074185;28;20194;-58
2022/08/24 05:52:34;;;;;;;2.30;2.10;;;16.10;87.30;;;;;;5110218;28;20184;-58
2022/08/24 05:55:00;;;;;;;3.37;2.13;;;16.10;87.40;;;;;;5095195;28;20195;-58
2022/08/24 05:57:31;;;;;;;3.60;1.97;;;16.10;87.40;;;;;;5097154;28;20275;-57
2022/08/24 05:59:57;;;;;;;4.03;2.43;;;16.10;87.40;;;;;;5098376;28;20196;-58
2022/08/24 06:02:22;;;;;;;2.30;2.00;;;16.20;87.50;;;;;;5067791;28;20217;-58
2022/08/24 06:04:48;;;;;;;5.93;2.40;;;16.20;87.30;;;;;;5074395;28;20289;-58
2022/08/24 06:07:14;;;;;;;2.50;1.87;;;16.20;87.40;;;;;;5090770;28;20303;-58
2022/08/24 06:09:40;;;;;;;3.93;2.30;;;16.20;87.40;;;;;;5091697;28;20188;-57
2022/08/24 06:12:07;;;;;;;3.80;1.97;;;16.20;87.40;;;;;;5096622;28;20197;-57
2022/08/24 06:14:34;;;;;;;4.97;2.20;;;16.20;87.40;;;;;;5094785;28;20196;-57
2022/08/24 06:17:06;;;;;;;2.67;2.10;;;16.20;87.40;;;;;;5084661;28;20279;-58
2022/08/24 06:19:32;;;;;;;4.77;2.30;;;16.30;87.40;;;;;;5082588;28;20197;-58
2022/08/24 06:21:58;;;;;;;4.50;2.30;;;16.30;87.40;;;;;;5106822;28;20189;-58
2022/08/24 06:27:21;;;;;;;2.63;1.80;;;16.30;87.30;;;;;;5055519;28;20263;-57
2022/08/24 06:30:02;;;;;;;2.50;2.10;;;16.30;87.50;;;;;;5095555;28;20276;-58
2022/08/24 06:32:28;;;;;;;3.50;2.50;;;16.30;87.40;;;;;;5094625;28;20184;-58
2022/08/24 06:34:57;;;;;;;2.83;2.10;;;16.30;87.30;;;;;;5097149;28;20188;-56
2022/08/24 06:37:25;;;;;;;5.80;2.40;;;16.40;87.40;;;;;;5074560;28;20195;-57
2022/08/24 06:39:56;;;;;;;2.60;1.87;;;16.40;87.40;;;;;;5080233;28;20200;-57
2022/08/24 06:42:23;;;;;;;3.80;2.10;;;16.40;87.50;;;;;;5075964;28;20284;-57
2022/08/24 06:44:50;;;;;;;2.23;2.00;;;16.50;87.60;;;;;;5113732;28;20186;-59
2022/08/24 06:47:16;;;;;;;2.77;2.20;;;16.50;87.60;;;;;;5090232;28;20215;-58
2022/08/24 06:49:41;;;;;;;2.53;2.03;;;16.50;87.60;;;;;;5075754;28;20193;-56
2022/08/24 06:52:08;;;;;;;3.03;1.90;;;16.50;87.60;;;;;;5090695;28;20217;-57
2022/08/24 06:54:35;;;;;;;2.53;2.27;;;16.50;87.70;;;;;;5097710;28;20196;-58
2022/08/24 06:57:00;;;;;;;2.33;2.13;;;16.60;87.70;;;;;;5059856;28;20201;-58
2022/08/24 06:59:26;;;;;;;2.60;2.07;;;16.70;87.70;;;;;;5087686;28;20202;-58
2022/08/24 07:01:54;;;;;;;2.90;2.03;;;16.70;87.80;;;;;;5095992;28;20206;-58
2022/08/24 07:04:20;;;;;;;3.97;2.17;;;16.70;87.80;;;;;;5063281;28;20197;-58
2022/08/24 07:06:46;;;;;;;3.53;2.30;;;16.80;87.90;;;;;;5059624;28;20216;-58
2022/08/24 07:09:12;;;;;;;3.10;1.60;;;16.80;87.90;;;;;;5071997;28;20197;-58
2022/08/24 07:11:38;;;;;;;4.47;2.50;;;16.80;87.90;;;;;;5089639;28;20237;-58
2022/08/24 07:14:04;;;;;;;2.83;2.10;;;16.80;88.00;;;;;;5056400;28;20193;-58
2022/08/24 07:16:29;;;;;;;3.03;1.93;;;16.80;88.00;;;;;;5095699;28;20267;-58
2022/08/24 07:18:55;;;;;;;3.00;2.47;;;16.80;88.10;;;;;;5087734;28;20220;-58
2022/08/24 07:21:21;;;;;;;2.90;2.17;;;16.80;88.00;;;;;;5079668;28;20287;-57
2022/08/24 07:23:48;;;;;;;4.43;1.97;;;16.90;88.00;;;;;;5071423;28;20197;-56
2022/08/24 07:26:18;;;;;;;2.53;2.20;;;16.90;87.80;;;;;;5074663;28;20262;-58
2022/08/24 07:28:44;;;;;;;2.33;2.00;;;17.00;87.80;;;;;;5112451;28;20185;-58
2022/08/24 07:31:12;;;;;;;2.40;1.87;;;17.00;87.80;;;;;;5077398;28;20199;-58
2022/08/24 07:33:38;;;;;;;1.57;1.47;;;17.00;87.80;;;;;;5069917;28;20188;-58
2022/08/24 07:36:04;;;;;;;2.60;1.60;;;17.10;87.80;;;;;;5092354;28;20196;-58
2022/08/24 07:38:30;;;;;;;2.83;2.00;;;17.10;87.80;;;;;;5088290;28;20193;-58
2022/08/24 07:40:58;;;;;;;3.30;1.80;;;17.20;87.90;;;;;;5076006;28;20195;-58
2022/08/24 07:43:24;;;;;;;1.97;1.60;;;17.20;87.80;;;;;;5070156;28;20193;-58
2022/08/24 07:45:50;;;;;;;2.37;1.90;;;17.30;87.90;;;;;;5083890;28;20221;-58
2022/08/24 07:48:16;;;;;;;1.93;1.53;;;17.30;87.90;;;;;;5068217;28;20196;-58
2022/08/24 07:50:42;;;;;;;2.00;1.77;;;17.30;87.90;;;;;;5070161;28;20242;-58
2022/08/24 07:53:08;;;;;;;1.93;1.73;;;17.30;87.90;;;;;;5089330;28;20192;-57
2022/08/24 07:55:34;;;;;;;3.33;2.30;;;17.40;87.90;;;;;;5082453;28;20184;-58
2022/08/24 07:58:00;;;;;;;2.93;1.87;;;17.50;87.80;;;;;;5083376;28;20248;-58
2022/08/24 08:00:26;;;;;;;2.43;1.60;;;17.50;87.70;;;;;;5080926;28;20192;-58
2022/08/24 08:02:52;;;;;;;2.63;1.73;;;17.60;87.00;;;;;;5095775;28;20192;-58
2022/08/24 08:05:21;;;;;;;2.00;1.60;;;17.70;87.10;;;;;;5080002;28;20248;-58
2022/08/24 08:07:48;;;;;;;2.07;1.70;;;17.80;86.90;;;;;;5078426;28;20288;-58
2022/08/24 08:10:14;;;;;;;2.53;1.57;;;17.80;85.60;;;;;;5078918;28;20184;-58
2022/08/24 08:12:40;;;;;;;2.20;1.83;;;18.00;85.70;;;;;;5111148;28;20241;-58
2022/08/24 08:15:08;;;;;;;1.30;1.20;;;18.50;83.00;;;;;;5096385;28;20225;-58
2022/08/24 08:17:36;;;;;;;2.13;1.20;;;18.80;79.80;;;;;;5095810;28;20237;-58
2022/08/24 08:20:03;;;;;;;1.73;1.30;;;19.10;77.70;;;;;;5098989;28;20193;-58
2022/08/24 08:25:13;;;;;;;1.47;1.20;;;19.50;76.50;;;;;;5107451;28;20237;-58
2022/08/24 08:27:39;;;;;;;1.50;1.30;;;19.60;76.30;;;;;;5076576;28;20237;-58
2022/08/24 08:30:05;;;;;;;1.27;1.17;;;19.70;74.00;;;;;;5071555;28;20234;-58
2022/08/24 08:32:31;;;;;;;2.10;1.50;;;19.80;75.10;;;;;;5073033;28;20275;-58
2022/08/24 08:34:57;;;;;;;2.37;1.20;;;20.00;74.70;;;;;;5125029;27;20208;-58
2022/08/24 08:37:23;;;;;;;1.50;1.20;;;19.90;74.80;;;;;;5069741;28;20344;-58
2022/08/24 08:39:48;;;;;;;2.30;1.30;;;20.00;71.90;;;;;;5057304;28;20196;-58
2022/08/24 08:42:35;;;;;;;2.97;1.10;;;20.20;71.70;;;;;;5063766;28;20192;-58
2022/08/24 08:45:04;;;;;;;1.70;1.40;;;20.30;72.10;;;;;;5099276;28;20216;-58
2022/08/24 08:48:09;;;;;;;1.50;1.40;;;20.30;73.20;;;;;;5099271;28;20284;-58
2022/08/24 08:50:50;;;;;;;2.90;1.37;;;20.40;73.00;;;;;;5091333;28;20180;-57
2022/08/24 08:53:46;;;;;;;1.60;1.20;;;20.50;71.90;;;;;;5089223;28;20176;-57
2022/08/24 08:56:33;;;;;;;1.70;1.50;;;20.50;72.80;;;;;;5098713;28;20188;-56
2022/08/24 08:59:29;;;;;;;1.27;1.17;;;20.60;72.90;;;;;;5109578;28;20181;-56
2022/08/24 09:02:20;;;;;;;2.40;1.40;;;20.70;73.70;;;;;;5102885;28;20192;-56
2022/08/24 09:05:37;;;;;;;2.27;1.27;;;20.80;71.80;;;;;;5089170;28;20185;-56
2022/08/24 09:08:31;;;;;;;1.70;1.17;;;21.20;68.70;;;;;;5035382;28;20191;-56
2022/08/24 09:11:25;;;;;;;2.20;0.90;;;21.50;69.30;;;;;;5037745;28;20189;-56
2022/08/24 09:14:05;;;;;;;1.60;1.40;;;21.40;71.60;;;;;;5107718;28;20206;-56
2022/08/24 09:16:45;;;;;;;1.87;1.30;;;21.40;70.60;;;;;;5105055;28;20206;-56
2022/08/24 09:19:35;;;;;;;1.40;1.30;;;21.40;71.70;;;;;;5101115;28;20190;-56
2022/08/24 09:22:09;;;;;;;1.40;1.23;;;21.40;72.70;;;;;;5088029;28;20268;-57
2022/08/24 09:24:53;;;;;;;1.40;1.20;;;21.50;73.40;;;;;;5116566;28;20207;-57
2022/08/24 09:27:34;;;;;;;1.00;1.00;;;21.50;68.60;;;;;;5116234;28;20239;-57
2022/08/24 09:30:17;;;;;;;4.50;1.50;;;21.60;70.50;;;;;;5098198;28;20172;-57
2022/08/24 09:33:15;;;;;;;2.47;1.20;;;21.60;71.60;;;;;;5091774;28;20275;-57
2022/08/24 09:35:50;;;;;;;1.20;1.10;;;21.70;72.80;;;;;;5115256;28;20263;-57
2022/08/24 09:38:45;;;;;;;1.90;1.60;;;21.70;73.10;;;;;;5108695;28;20189;-56
2022/08/24 09:41:26;;;;;;;1.53;1.27;;;21.80;72.80;;;;;;5097493;28;20180;-57
2022/08/24 09:44:11;;;;;;;1.57;1.47;;;21.80;73.10;;;;;;5091943;28;20188;-57
2022/08/24 09:47:04;;;;;;;1.97;1.80;;;21.80;73.40;;;;;;5093160;28;20208;-58
2022/08/24 09:49:39;;;;;;;1.90;1.50;;;21.80;72.90;;;;;;5093651;28;20177;-58
2022/08/24 09:52:20;;;;;;;1.90;1.70;;;21.80;72.20;;;;;;5108834;28;20183;-58
2022/08/24 09:55:13;;;;;;;2.60;1.73;;;21.90;71.90;;;;;;5115777;28;20190;-59
2022/08/24 09:57:58;;;;;;;1.80;1.70;;;21.90;72.40;;;;;;5094451;28;20235;-59
2022/08/24 10:00:44;;;;;;;2.33;1.63;;;22.10;69.50;;;;;;5111587;28;20248;-59
2022/08/24 10:03:24;;;;;;;2.40;1.70;;;22.10;70.70;;;;;;5085969;28;20177;-60
2022/08/24 10:05:55;;;;;;;3.20;2.87;;;22.20;70.70;;;;;;5094057;28;20200;-60
2022/08/24 10:08:40;;;;;;;3.03;1.90;;;22.20;68.10;;;;;;5115900;28;20281;-59
2022/08/24 10:11:32;;;;;;;2.10;1.83;;;22.20;68.20;;;;;;5095118;28;20237;-60
2022/08/24 10:14:23;;;;;;;1.93;1.70;;;22.30;66.90;;;;;;5096854;28;20211;-60
2022/08/24 10:17:08;;;;;;;1.70;1.53;;;22.40;68.00;;;;;;5079686;28;20206;-60
2022/08/24 10:19:52;;;;;;;1.87;1.60;;;22.50;65.20;;;;;;5093516;28;20197;-60
2022/08/24 10:22:44;;;;;;;2.60;1.77;;;22.70;63.30;;;;;;5094721;28;20197;-60
2022/08/24 10:25:37;;;;;;;3.23;2.10;;;23.00;63.30;;;;;;5091006;28;20191;-60
2022/08/24 10:28:38;;;;;;;8.23;3.90;;;23.20;62.20;;;;;;5084701;28;20206;-59
2022/08/24 10:31:05;;;;;;;25.17;9.97;;;23.10;63.00;;;;;;5090940;28;20195;-60
2022/08/24 10:33:49;;;;;;;14.83;5.73;;;23.10;64.70;;;;;;5098072;28;20191;-60
2022/08/24 10:36:34;;;;;;;4.33;3.07;;;23.10;64.20;;;;;;5092668;28;20223;-60
2022/08/24 10:39:39;;;;;;;4.30;2.33;;;23.00;62.90;;;;;;5097308;28;20190;-60
2022/08/24 10:45:27;;;;;;;7.13;4.20;;;23.00;62.20;;;;;;5103929;28;20180;-60
2022/08/24 10:48:30;;;;;;;14.27;5.17;;;23.00;62.40;;;;;;5116249;27;20184;-60
2022/08/24 10:51:24;;;;;;;8.30;4.73;;;23.10;61.80;;;;;;5089700;28;20184;-59
2022/08/24 10:53:52;;;;;;;5.03;2.60;;;23.30;61.80;;;;;;5104809;28;20184;-59
2022/08/24 10:56:26;;;;;;;10.43;5.17;;;23.40;63.30;;;;;;5073495;28;20189;-58
2022/08/24 10:59:10;;;;;;;13.17;6.93;;;23.60;63.70;;;;;;5087058;28;20192;-58
2022/08/24 11:01:38;;;;;;;9.23;4.60;;;23.60;62.60;;;;;;5102537;28;20280;-58
2022/08/24 11:04:10;;;;;;;8.40;3.77;;;23.50;64.40;;;;;;5076293;28;20216;-58
2022/08/24 11:06:39;;;;;;;22.33;12.63;;;23.50;62.50;;;;;;5092954;28;20214;-59
2022/08/24 11:09:16;;;;;;;21.47;12.40;;;23.50;64.80;;;;;;5098385;28;20173;-60
2022/08/24 11:11:45;;;;;;;8.53;4.80;;;23.50;66.90;;;;;;5099655;28;20194;-59
2022/08/24 11:14:14;;;;;;;13.07;6.60;;;23.50;65.10;;;;;;5092621;28;20196;-60
2022/08/24 11:16:43;;;;;;;15.40;7.50;;;23.60;66.40;;;;;;5106773;28;20192;-59
2022/08/24 11:19:12;;;;;;;21.73;9.63;;;23.60;68.20;;;;;;5088040;28;20227;-59
2022/08/24 11:21:50;;;;;;;13.07;6.80;;;23.60;69.50;;;;;;5116077;27;20200;-60
2022/08/24 11:24:25;;;;;;;8.87;4.17;;;23.60;69.30;;;;;;5094795;28;20188;-59
2022/08/24 11:26:56;;;;;;;6.63;4.37;;;23.50;68.80;;;;;;5099707;28;20223;-60
2022/08/24 11:29:45;;;;;;;12.23;4.93;;;23.50;68.90;;;;;;5094357;28;20209;-60
2022/08/24 11:32:32;;;;;;;9.13;4.63;;;23.60;68.80;;;;;;5117500;28;20187;-60
2022/08/24 11:35:26;;;;;;;5.93;3.50;;;23.70;69.50;;;;;;5112218;28;20237;-60
2022/08/24 11:38:07;;;;;;;3.63;2.20;;;23.70;68.80;;;;;;5076064;28;20189;-60
2022/08/24 11:40:39;;;;;;;3.10;1.93;;;23.80;67.50;;;;;;5083023;28;20216;-60
2022/08/24 11:43:26;;;;;;;2.33;2.13;;;23.80;66.70;;;;;;5087113;28;20188;-60
2022/08/24 11:46:13;;;;;;;3.07;1.83;;;23.90;67.50;;;;;;5096427;28;20211;-60
2022/08/24 11:49:00;;;;;;;3.57;2.50;;;24.00;68.10;;;;;;5078612;28;20185;-58
2022/08/24 11:51:32;;;;;;;3.50;2.10;;;24.10;68.20;;;;;;5093955;28;20203;-59
2022/08/24 11:54:36;;;;;;;2.80;2.20;;;24.20;67.40;;;;;;5086179;28;20173;-58
2022/08/24 11:57:17;;;;;;;2.27;1.80;;;24.30;67.00;;;;;;5080337;28;20204;-60
2022/08/24 11:59:54;;;;;;;2.93;2.03;;;24.40;63.50;;;;;;5087425;28;20181;-59
2022/08/24 12:02:24;;;;;;;2.17;1.70;;;24.50;64.90;;;;;;5100517;28;20180;-58
2022/08/24 12:05:08;;;;;;;3.33;2.10;;;24.70;63.30;;;;;;5096111;28;20192;-58
2022/08/24 12:07:49;;;;;;;2.57;1.90;;;24.70;62.90;;;;;;5095894;28;20231;-58
2022/08/24 12:10:33;;;;;;;2.37;2.00;;;24.80;64.00;;;;;;5095818;28;20180;-59
2022/08/24 12:13:14;;;;;;;3.43;2.43;;;24.90;60.60;;;;;;5087762;28;20209;-60
2022/08/24 12:15:42;;;;;;;3.00;2.70;;;25.00;59.80;;;;;;5082955;28;20194;-59
2022/08/24 12:18:22;;;;;;;2.30;1.93;;;25.00;61.70;;;;;;5084389;28;20187;-59
2022/08/24 12:20:51;;;;;;;2.20;2.00;;;25.20;59.60;;;;;;5095813;28;20187;-58
2022/08/24 12:23:32;;;;;;;3.67;1.90;;;25.50;55.80;;;;;;5108776;28;20189;-59
2022/08/24 12:26:15;;;;;;;1.97;1.77;;;25.70;58.60;;;;;;5105693;28;20220;-60
2022/08/24 12:28:52;;;;;;;2.23;2.03;;;25.90;55.50;;;;;;5113807;28;20191;-60
2022/08/24 12:31:35;;;;;;;2.10;2.00;;;26.20;55.80;;;;;;5075805;28;20268;-59
2022/08/24 12:34:08;;;;;;;1.80;1.70;;;26.20;54.30;;;;;;5088920;28;20185;-58
2022/08/24 12:37:16;;;;;;;2.60;1.87;;;26.50;54.10;;;;;;5094861;28;20200;-58
2022/08/24 12:40:12;;;;;;;2.27;1.67;;;26.90;54.10;;;;;;5037967;28;20200;-59
2022/08/24 12:42:49;;;;;;;2.13;1.90;;;27.20;52.10;;;;;;5072130;28;20219;-59
2022/08/24 12:45:18;;;;;;;2.10;1.90;;;27.60;52.60;;;;;;5096340;28;20271;-60
2022/08/24 12:47:53;;;;;;;2.07;1.97;;;27.70;51.90;;;;;;5090905;28;20287;-60
2022/08/24 12:50:24;;;;;;;17.53;9.43;;;28.20;51.90;;;;;;5093637;28;20188;-59
2022/08/24 12:53:11;;;;;;;8.47;4.33;;;28.50;54.50;;;;;;5092219;28;20180;-59
2022/08/24 12:56:16;;;;;;;7.87;4.20;;;28.90;52.90;;;;;;5101914;28;20187;-59
2022/08/24 12:58:57;;;;;;;4.47;2.47;;;29.30;51.90;;;;;;5113163;28;20180;-58
2022/08/24 13:01:27;;;;;;;8.23;4.73;;;29.70;48.20;;;;;;5091270;28;20184;-59
2022/08/24 13:04:30;;;;;;;2.43;2.20;;;29.70;50.20;;;;;;5095978;28;20180;-59
2022/08/24 13:07:04;;;;;;;6.00;3.37;;;29.20;49.20;;;;;;5111289;28;20202;-59
2022/08/24 13:09:33;;;;;;;3.23;1.77;;;29.00;50.20;;;;;;5097022;28;20271;-58
2022/08/24 13:12:37;;;;;;;5.47;2.73;;;28.60;45.40;;;;;;5115654;28;20275;-59
2022/08/24 13:15:21;;;;;;;3.03;2.10;;;28.20;48.30;;;;;;5098103;28;20185;-59
2022/08/24 13:17:52;;;;;;;2.37;2.17;;;28.00;49.20;;;;;;5089021;28;20185;-59
2022/08/24 13:20:50;;;;;;;2.03;1.90;;;27.90;50.30;;;;;;5102660;28;20180;-59
2022/08/24 13:23:21;;;;;;;5.93;2.13;;;27.80;50.00;;;;;;5094528;28;20212;-59